createdAt,value
2018-09-28T00:02:01.873Z,5.10
2018-09-28T00:04:29.386Z,5.37
2018-09-28T00:06:57.823Z,5.50
2018-09-28T00:09:25.640Z,5.23
2018-09-28T00:11:53.062Z,4.80
2018-09-28T00:14:20.438Z,5.97
2018-09-28T00:16:47.796Z,5.10
2018-09-28T00:19:15.163Z,5.70
2018-09-28T00:21:42.534Z,5.47
2018-09-28T00:24:09.922Z,5.47
2018-09-28T00:26:37.267Z,5.53
2018-09-28T00:29:04.652Z,5.60
2018-09-28T00:31:31.983Z,6.00
2018-09-28T00:33:59.577Z,4.87
2018-09-28T00:36:27.991Z,6.40
2018-09-28T00:38:55.648Z,6.13
2018-09-28T00:41:23.070Z,5.47
2018-09-28T00:43:50.430Z,5.97
2018-09-28T00:46:17.760Z,5.13
2018-09-28T00:48:45.121Z,5.80
2018-09-28T00:51:12.480Z,5.97
2018-09-28T00:53:39.829Z,6.77
2018-09-28T00:56:07.320Z,5.30
2018-09-28T00:58:34.704Z,5.60
2018-09-28T01:01:02.069Z,6.10
2018-09-28T01:03:30.035Z,7.17
2018-09-28T01:05:58.240Z,5.10
2018-09-28T01:08:25.647Z,5.40
2018-09-28T01:10:53.095Z,6.03
2018-09-28T01:13:20.454Z,5.60
2018-09-28T01:15:47.829Z,5.93
2018-09-28T01:18:15.175Z,5.27
2018-09-28T01:20:42.564Z,5.93
2018-09-28T01:23:09.896Z,43.93
2018-09-28T01:25:37.380Z,15.50
2018-09-28T01:28:04.733Z,6.50
2018-09-28T01:30:32.140Z,5.83
2018-09-28T01:33:00.346Z,6.63
2018-09-28T01:35:28.594Z,6.10
2018-09-28T01:37:56.000Z,5.67
2018-09-28T01:40:23.362Z,5.63
2018-09-28T01:42:50.695Z,5.83
2018-09-28T01:45:18.080Z,5.57
2018-09-28T01:47:45.412Z,5.83
2018-09-28T01:50:12.772Z,5.93
2018-09-28T01:52:40.138Z,6.03
2018-09-28T01:55:07.499Z,5.70
2018-09-28T01:57:34.845Z,6.17
2018-09-28T02:00:02.353Z,5.93
2018-09-28T02:02:30.703Z,6.43
2018-09-28T02:04:58.800Z,6.43
2018-09-28T02:07:26.202Z,5.60
2018-09-28T02:09:53.563Z,6.03
2018-09-28T02:12:20.987Z,5.77
2018-09-28T02:14:48.339Z,5.80
2018-09-28T02:17:15.700Z,6.07
2018-09-28T02:19:43.054Z,5.67
2018-09-28T02:22:11.267Z,5.40
2018-09-28T02:24:39.375Z,23.87
2018-09-28T02:27:06.755Z,16.73
2018-09-28T02:29:34.150Z,7.33
2018-09-28T02:32:01.519Z,5.60
2018-09-28T02:34:28.850Z,6.00
2018-09-28T02:36:56.227Z,6.13
2018-09-28T02:39:23.558Z,6.60
2018-09-28T02:41:51.628Z,5.77
2018-09-28T02:44:18.977Z,6.13
2018-09-28T02:46:46.343Z,6.90
2018-09-28T02:49:13.680Z,5.80
2018-09-28T02:51:41.737Z,6.07
2018-09-28T02:54:09.991Z,6.03
2018-09-28T02:56:37.409Z,6.70
2018-09-28T02:59:04.876Z,5.90
2018-09-28T03:01:32.268Z,6.50
2018-09-28T03:03:59.593Z,6.90
2018-09-28T03:06:27.049Z,6.10
2018-09-28T03:08:54.361Z,5.50
2018-09-28T03:11:21.744Z,6.70
2018-09-28T03:13:49.125Z,6.40
2018-09-28T03:16:16.520Z,6.23
2018-09-28T03:18:43.853Z,5.40
2018-09-28T03:21:12.122Z,7.10
2018-09-28T03:23:40.302Z,6.53
2018-09-28T03:26:07.754Z,6.60
2018-09-28T03:28:35.097Z,6.10
2018-09-28T03:31:02.572Z,6.23
2018-09-28T03:33:29.917Z,6.73
2018-09-28T03:35:57.290Z,7.00
2018-09-28T03:38:24.635Z,6.50
2018-09-28T03:40:51.993Z,5.73
2018-09-28T03:43:19.369Z,7.07
2018-09-28T03:45:46.737Z,6.50
2018-09-28T03:48:14.067Z,6.20
2018-09-28T03:50:41.517Z,6.63
2018-09-28T03:53:09.070Z,6.30
2018-09-28T03:55:36.469Z,7.00
2018-09-28T03:58:03.862Z,5.27
2018-09-28T04:00:31.200Z,5.77
2018-09-28T04:02:58.656Z,6.20
2018-09-28T04:05:25.936Z,6.60
2018-09-28T04:07:53.316Z,6.50
2018-09-28T04:10:20.679Z,6.30
2018-09-28T04:12:48.077Z,5.93
2018-09-28T04:15:15.465Z,6.37
2018-09-28T04:17:43.388Z,6.70
2018-09-28T04:20:11.932Z,6.27
2018-09-28T04:22:39.584Z,5.20
2018-09-28T04:25:07.038Z,6.60
2018-09-28T04:27:34.395Z,5.70
2018-09-28T04:30:01.718Z,6.10
2018-09-28T04:32:29.126Z,5.73
2018-09-28T04:34:56.517Z,5.90
2018-09-28T04:37:23.888Z,6.30
2018-09-28T04:39:51.257Z,7.00
2018-09-28T04:42:18.624Z,6.10
2018-09-28T04:44:46.012Z,6.50
2018-09-28T04:47:13.873Z,6.07
2018-09-28T04:49:42.415Z,6.60
2018-09-28T04:52:10.094Z,7.00
2018-09-28T04:54:37.517Z,6.27
2018-09-28T04:57:04.868Z,6.40
2018-09-28T04:59:32.222Z,6.63
2018-09-28T05:01:59.581Z,6.23
2018-09-28T05:04:26.978Z,6.60
2018-09-28T05:06:54.312Z,6.70
2018-09-28T05:09:21.706Z,14.73
2018-09-28T05:11:49.043Z,9.73
2018-09-28T05:14:16.471Z,6.97
2018-09-28T05:16:44.273Z,7.27
2018-09-28T05:19:12.558Z,6.90
2018-09-28T05:21:39.992Z,7.53
2018-09-28T05:24:07.440Z,7.13
2018-09-28T05:26:34.833Z,6.70
2018-09-28T05:29:02.191Z,7.33
2018-09-28T05:31:29.647Z,6.17
2018-09-28T05:33:57.029Z,6.50
2018-09-28T05:36:24.380Z,7.23
2018-09-28T05:38:51.728Z,6.63
2018-09-28T05:41:19.325Z,7.50
2018-09-28T05:43:46.741Z,10.10
2018-09-28T05:46:14.745Z,9.60
2018-09-28T05:48:43.075Z,8.63
2018-09-28T05:51:10.506Z,8.83
2018-09-28T05:53:38.338Z,15.40
2018-09-28T05:56:05.817Z,7.27
2018-09-28T05:58:38.626Z,7.23
2018-09-28T06:01:12.208Z,5.80
2018-09-28T06:03:44.916Z,6.90
2018-09-28T06:06:13.264Z,5.93
2018-09-28T06:08:40.734Z,6.43
2018-09-28T06:11:08.155Z,7.17
2018-09-28T06:13:35.514Z,5.93
2018-09-28T06:16:02.884Z,5.83
2018-09-28T06:18:30.225Z,6.43
2018-09-28T06:20:57.583Z,5.33
2018-09-28T06:23:24.955Z,6.80
2018-09-28T06:25:52.361Z,6.20
2018-09-28T06:28:19.700Z,6.67
2018-09-28T06:30:47.037Z,7.00
2018-09-28T06:33:15.340Z,6.50
2018-09-28T06:35:43.469Z,6.77
2018-09-28T06:38:10.880Z,6.10
2018-09-28T06:40:38.235Z,7.50
2018-09-28T06:43:05.607Z,7.17
2018-09-28T06:45:32.943Z,6.50
2018-09-28T06:48:00.311Z,7.60
2018-09-28T06:50:27.661Z,7.53
2018-09-28T06:52:54.993Z,8.37
2018-09-28T06:55:22.356Z,9.40
2018-09-28T06:57:49.692Z,8.20
2018-09-28T07:00:17.290Z,7.33
2018-09-28T07:02:45.539Z,7.40
2018-09-28T07:05:13.567Z,8.87
2018-09-28T07:07:40.961Z,8.70
2018-09-28T07:10:08.310Z,8.67
2018-09-28T07:12:35.669Z,8.10
2018-09-28T07:15:03.770Z,7.53
2018-09-28T07:17:31.125Z,7.73
2018-09-28T07:19:58.472Z,8.07
2018-09-28T07:22:25.813Z,6.87
2018-09-28T07:24:53.200Z,7.73
2018-09-28T07:27:20.531Z,8.00
2018-09-28T07:29:47.999Z,7.87
2018-09-28T07:32:16.300Z,8.40
2018-09-28T07:34:44.284Z,8.70
2018-09-28T07:37:12.003Z,17.37
2018-09-28T07:39:39.086Z,16.07
2018-09-28T07:42:06.475Z,11.07
2018-09-28T07:44:33.863Z,8.90
2018-09-28T07:47:01.195Z,9.60
2018-09-28T07:49:28.548Z,7.77
2018-09-28T07:51:55.897Z,9.00
2018-09-28T07:54:23.269Z,10.97
2018-09-28T07:56:50.630Z,10.20
2018-09-28T07:59:18.076Z,9.30
2018-09-28T08:01:46.451Z,11.20
2018-09-28T08:04:14.284Z,8.63
2018-09-28T08:06:41.731Z,9.10
2018-09-28T08:09:09.775Z,8.20
2018-09-28T08:11:37.185Z,8.80
2018-09-28T08:14:04.572Z,12.77
2018-09-28T08:16:31.942Z,18.60
2018-09-28T08:18:59.284Z,8.70
2018-09-28T08:21:26.655Z,10.57
2018-09-28T08:23:54.000Z,6.20
2018-09-28T08:26:21.367Z,8.30
2018-09-28T08:28:48.876Z,9.10
2018-09-28T08:31:17.205Z,9.13
2018-09-28T08:33:45.209Z,9.73
2018-09-28T08:36:12.647Z,9.40
2018-09-28T08:38:39.997Z,9.37
2018-09-28T08:41:07.482Z,9.87
2018-09-28T08:43:34.854Z,8.30
2018-09-28T08:46:02.230Z,10.17
2018-09-28T08:48:29.567Z,10.80
2018-09-28T08:50:56.927Z,9.70
2018-09-28T08:53:24.261Z,10.03
2018-09-28T08:55:51.681Z,10.33
2018-09-28T08:58:19.176Z,9.53
2018-09-28T09:00:47.571Z,9.40
2018-09-28T09:03:15.412Z,9.63
2018-09-28T09:05:43.066Z,9.90
2018-09-28T09:08:11.237Z,9.90
2018-09-28T09:10:39.712Z,9.60
2018-09-28T09:13:07.707Z,11.07
2018-09-28T09:15:35.119Z,9.43
2018-09-28T09:18:02.551Z,10.53
2018-09-28T09:20:29.864Z,11.60
2018-09-28T09:22:57.227Z,10.23
2018-09-28T09:25:24.617Z,11.30
2018-09-28T09:27:51.960Z,10.60
2018-09-28T09:30:19.294Z,9.73
2018-09-28T09:32:46.694Z,9.80
2018-09-28T09:35:14.027Z,9.50
2018-09-28T09:37:41.654Z,8.90
2018-09-28T09:40:10.047Z,8.70
2018-09-28T09:42:37.738Z,5.30
2018-09-28T09:45:05.231Z,9.70
2018-09-28T09:47:32.600Z,10.63
2018-09-28T09:50:00.064Z,9.40
2018-09-28T09:52:27.449Z,9.60
2018-09-28T09:54:54.796Z,6.13
2018-09-28T09:57:22.167Z,9.63
2018-09-28T09:59:49.503Z,10.77
2018-09-28T10:02:22.202Z,5.80
2018-09-28T10:04:49.538Z,7.70
2018-09-28T10:07:16.901Z,6.17
2018-09-28T10:09:44.289Z,8.77
2018-09-28T10:12:12.110Z,6.70
2018-09-28T10:14:40.578Z,8.83
2018-09-28T10:17:08.245Z,10.40
2018-09-28T10:19:35.681Z,7.63
2018-09-28T10:22:03.085Z,6.80
2018-09-28T10:24:30.438Z,5.40
2018-09-28T10:26:57.825Z,5.20
2018-09-28T10:29:25.161Z,5.63
2018-09-28T10:31:52.509Z,4.33
2018-09-28T10:34:19.899Z,9.60
2018-09-28T10:36:47.237Z,6.77
2018-09-28T10:39:14.623Z,7.90
2018-09-28T10:41:42.450Z,9.50
2018-09-28T10:44:12.574Z,4.90
2018-09-28T10:46:41.066Z,13.40
2018-09-28T10:49:08.669Z,12.37
2018-09-28T10:51:36.154Z,6.47
2018-09-28T10:54:04.039Z,11.20
2018-09-28T10:56:31.396Z,6.53
2018-09-28T10:58:58.802Z,6.73
2018-09-28T11:01:26.107Z,7.12
2018-09-28T11:03:53.471Z,9.97
2018-09-28T11:06:20.825Z,8.03
2018-09-28T11:08:48.266Z,7.90
2018-09-28T11:11:15.590Z,11.10
2018-09-28T11:13:43.415Z,11.70
2018-09-28T11:16:11.975Z,8.37
2018-09-28T11:18:39.895Z,5.47
2018-09-28T11:21:07.995Z,8.57
2018-09-28T11:23:35.354Z,6.03
2018-09-28T11:26:02.683Z,9.97
2018-09-28T11:28:30.074Z,11.30
2018-09-28T11:30:57.432Z,13.23
2018-09-28T11:33:24.806Z,5.20
2018-09-28T11:35:52.162Z,10.63
2018-09-28T11:38:19.867Z,10.80
2018-09-28T11:40:47.210Z,10.33
2018-09-28T11:43:14.625Z,9.77
2018-09-28T11:45:43.020Z,5.07
2018-09-28T11:48:11.099Z,11.90
2018-09-28T11:50:38.497Z,10.17
2018-09-28T11:53:05.887Z,4.50
2018-09-28T11:55:33.222Z,7.33
2018-09-28T11:58:00.603Z,5.17
2018-09-28T12:00:27.957Z,8.37
2018-09-28T12:02:55.346Z,6.87
2018-09-28T12:05:22.739Z,7.43
2018-09-28T12:07:50.111Z,6.30
2018-09-28T12:10:17.481Z,10.20
2018-09-28T12:12:45.069Z,4.20
2018-09-28T12:15:13.213Z,3.37
2018-09-28T12:17:41.221Z,6.87
2018-09-28T12:20:08.889Z,5.60
2018-09-28T12:22:36.258Z,5.43
2018-09-28T12:25:03.707Z,6.10
2018-09-28T12:27:31.124Z,6.50
2018-09-28T12:29:58.470Z,5.03
2018-09-28T12:32:26.636Z,4.47
2018-09-28T12:34:53.996Z,4.67
2018-09-28T12:37:21.338Z,6.70
2018-09-28T12:39:48.809Z,5.90
2018-09-28T12:42:16.094Z,3.50
2018-09-28T12:44:44.139Z,4.00
2018-09-28T12:47:12.449Z,7.63
2018-09-28T12:49:39.907Z,8.60
2018-09-28T12:52:07.311Z,5.70
2018-09-28T12:54:34.702Z,4.10
2018-09-28T12:57:02.032Z,4.00
2018-09-28T12:59:29.450Z,6.40
2018-09-28T13:01:56.784Z,7.17
2018-09-28T13:04:24.407Z,6.70
2018-09-28T13:06:51.747Z,4.93
2018-09-28T13:09:19.137Z,7.23
2018-09-28T13:11:46.732Z,6.90
2018-09-28T13:14:14.684Z,7.50
2018-09-28T13:16:42.959Z,8.60
2018-09-28T13:19:10.521Z,6.90
2018-09-28T13:21:38.026Z,8.20
2018-09-28T13:24:05.452Z,7.00
2018-09-28T13:26:32.854Z,4.17
2018-09-28T13:29:00.212Z,5.53
2018-09-28T13:31:27.551Z,3.73
2018-09-28T13:33:55.139Z,5.67
2018-09-28T13:36:22.732Z,10.73
2018-09-28T13:38:50.116Z,9.90
2018-09-28T13:41:17.433Z,7.77
2018-09-28T13:43:45.206Z,9.43
2018-09-28T13:46:13.492Z,8.07
2018-09-28T13:48:41.042Z,6.90
2018-09-28T13:51:08.452Z,8.50
2018-09-28T13:53:35.859Z,8.20
2018-09-28T13:56:03.190Z,7.80
2018-09-28T13:58:30.559Z,10.40
2018-09-28T14:00:57.923Z,9.70
2018-09-28T14:03:25.297Z,6.47
2018-09-28T14:05:52.680Z,5.00
2018-09-28T14:08:20.050Z,8.27
2018-09-28T14:10:47.474Z,10.80
2018-09-28T14:13:15.541Z,9.50
2018-09-28T14:15:43.889Z,4.67
2018-09-28T14:18:11.321Z,8.67
2018-09-28T14:20:38.811Z,8.03
2018-09-28T14:23:06.142Z,10.13
2018-09-28T14:25:33.514Z,8.00
2018-09-28T14:28:00.928Z,9.67
2018-09-28T14:30:28.416Z,11.40
2018-09-28T14:32:55.678Z,8.17
2018-09-28T14:35:23.182Z,9.63
2018-09-28T14:37:50.499Z,8.93
2018-09-28T14:40:17.879Z,8.10
2018-09-28T14:42:46.095Z,10.40
2018-09-28T14:45:14.151Z,9.70
2018-09-28T14:47:41.485Z,8.10
2018-09-28T14:50:08.919Z,5.97
2018-09-28T14:52:36.279Z,10.93
2018-09-28T14:55:03.710Z,10.20
2018-09-28T14:57:31.046Z,12.37
2018-09-28T14:59:58.413Z,10.60
2018-09-28T15:02:25.810Z,11.37
2018-09-28T15:04:53.154Z,10.00
2018-09-28T15:07:20.527Z,10.67
2018-09-28T15:09:48.023Z,10.07
2018-09-28T15:12:16.289Z,11.20
2018-09-28T15:14:44.362Z,11.37
2018-09-28T15:17:11.815Z,10.60
2018-09-28T15:19:39.173Z,9.73
2018-09-28T15:22:06.541Z,9.50
2018-09-28T15:24:33.889Z,9.43
2018-09-28T15:27:01.257Z,8.20
2018-09-28T15:29:28.648Z,7.80
2018-09-28T15:31:55.987Z,9.10
2018-09-28T15:34:23.338Z,9.53
2018-09-28T15:36:50.704Z,9.80
2018-09-28T15:39:18.174Z,12.13
2018-09-28T15:41:46.805Z,10.10
2018-09-28T15:44:14.911Z,11.57
2018-09-28T15:46:42.345Z,9.67
2018-09-28T15:49:09.678Z,8.87
2018-09-28T15:51:37.119Z,9.50
2018-09-28T15:54:04.594Z,10.90
2018-09-28T15:56:32.255Z,10.17
2018-09-28T15:58:59.717Z,9.60
2018-09-28T16:01:27.199Z,8.90
2018-09-28T16:03:54.699Z,8.50
2018-09-28T16:06:22.132Z,7.43
2018-09-28T16:08:49.533Z,8.30
2018-09-28T16:11:17.768Z,7.53
2018-09-28T16:13:46.239Z,4.67
2018-09-28T16:16:13.702Z,5.60
2018-09-28T16:18:42.008Z,5.27
2018-09-28T16:21:09.421Z,3.73
2018-09-28T16:23:37.306Z,4.80
2018-09-28T16:26:04.758Z,4.60
2018-09-28T16:28:32.099Z,5.37
2018-09-28T16:30:59.486Z,4.77
2018-09-28T16:33:26.835Z,4.70
2018-09-28T16:35:54.219Z,4.70
2018-09-28T16:38:22.038Z,6.90
2018-09-28T16:40:50.919Z,9.17
2018-09-28T16:43:18.891Z,6.80
2018-09-28T16:45:47.478Z,8.20
2018-09-28T16:48:15.145Z,8.10
2018-09-28T16:50:42.545Z,7.00
2018-09-28T16:53:09.953Z,6.83
2018-09-28T16:55:37.271Z,5.40
2018-09-28T16:58:04.647Z,7.73
2018-09-28T17:00:31.966Z,6.50
2018-09-28T17:02:59.366Z,4.03
2018-09-28T17:05:26.729Z,5.30
2018-09-28T17:07:54.159Z,4.57
2018-09-28T17:10:21.490Z,5.77
2018-09-28T17:12:49.435Z,6.20
2018-09-28T17:15:17.932Z,3.47
2018-09-28T17:17:45.548Z,4.90
2018-09-28T17:20:12.950Z,5.37
2018-09-28T17:22:40.303Z,5.13
2018-09-28T17:25:07.634Z,5.30
2018-09-28T17:27:34.999Z,5.20
2018-09-28T17:30:02.333Z,4.30
2018-09-28T17:32:29.678Z,4.03
2018-09-28T17:34:57.082Z,4.63
2018-09-28T17:37:24.422Z,4.70
2018-09-28T17:39:51.800Z,3.53
2018-09-28T17:42:19.845Z,4.00
2018-09-28T17:44:48.227Z,3.93
2018-09-28T17:47:15.652Z,3.63
2018-09-28T17:49:43.087Z,3.40
2018-09-28T17:52:10.462Z,2.90
2018-09-28T17:54:37.826Z,3.53
2018-09-28T17:57:05.167Z,2.90
2018-09-28T17:59:32.552Z,3.00
2018-09-28T18:01:59.907Z,2.90
2018-09-28T18:04:27.286Z,3.30
2018-09-28T18:06:54.628Z,3.37
2018-09-28T18:09:21.982Z,3.57
2018-09-28T18:11:50.232Z,4.30
2018-09-28T18:14:18.575Z,3.80
2018-09-28T18:16:46.038Z,2.40
2018-09-28T18:19:13.472Z,3.23
2018-09-28T18:21:40.820Z,3.13
2018-09-28T18:24:08.195Z,2.70
2018-09-28T18:26:35.598Z,2.57
2018-09-28T18:29:02.976Z,4.07
2018-09-28T18:31:30.323Z,2.73
2018-09-28T18:33:57.719Z,3.50
2018-09-28T18:36:25.040Z,2.60
2018-09-28T18:38:52.415Z,3.20
2018-09-28T18:41:19.829Z,3.60
2018-09-28T18:43:47.482Z,2.73
2018-09-28T18:46:14.878Z,1.47
2018-09-28T18:48:42.261Z,3.83
2018-09-28T18:51:09.615Z,3.53
2018-09-28T18:53:37.004Z,4.10
2018-09-28T18:56:04.322Z,3.03
2018-09-28T18:58:31.700Z,2.40
2018-09-28T19:00:59.014Z,3.80
2018-09-28T19:03:26.748Z,4.50
2018-09-28T19:05:54.078Z,3.13
2018-09-28T19:08:22.407Z,3.90
2018-09-28T19:10:50.870Z,4.27
2018-09-28T19:13:18.712Z,4.40
2018-09-28T19:15:46.088Z,3.20
2018-09-28T19:18:13.415Z,4.20
2018-09-28T19:20:40.810Z,4.67
2018-09-28T19:23:08.203Z,4.13
2018-09-28T19:25:35.563Z,3.87
2018-09-28T19:28:02.909Z,4.03
2018-09-28T19:30:30.299Z,3.63
2018-09-28T19:32:57.617Z,4.00
2018-09-28T19:35:24.967Z,3.97
2018-09-28T19:37:52.612Z,3.10
2018-09-28T19:40:20.949Z,3.30
2018-09-28T19:42:48.599Z,3.10
2018-09-28T19:45:16.053Z,4.07
2018-09-28T19:47:43.399Z,3.83
2018-09-28T19:50:10.781Z,2.80
2018-09-28T19:52:38.131Z,2.13
2018-09-28T19:55:05.519Z,2.80
2018-09-28T19:57:32.869Z,3.07
2018-09-28T20:00:00.245Z,2.10
2018-09-28T20:02:27.593Z,2.73
2018-09-28T20:04:54.945Z,2.70
2018-09-28T20:07:22.880Z,2.07
2018-09-28T20:09:51.172Z,2.07
2018-09-28T20:12:18.517Z,2.40
2018-09-28T20:14:45.942Z,3.23
2018-09-28T20:17:13.262Z,2.30
2018-09-28T20:19:40.719Z,1.90
2018-09-28T20:22:08.775Z,2.17
2018-09-28T20:24:36.135Z,1.93
2018-09-28T20:27:03.464Z,2.10
2018-09-28T20:29:30.868Z,2.57
2018-09-28T20:31:58.212Z,2.30
2018-09-28T20:34:25.570Z,1.90
2018-09-28T20:36:53.479Z,1.97
2018-09-28T20:39:22.713Z,1.80
2018-09-28T20:41:50.676Z,2.47
2018-09-28T20:44:18.150Z,1.67
2018-09-28T20:46:45.514Z,1.80
2018-09-28T20:49:12.868Z,1.60
2018-09-28T20:51:40.217Z,1.90
2018-09-28T20:54:07.566Z,1.40
2018-09-28T20:56:34.922Z,2.60
2018-09-28T20:59:02.271Z,1.93
2018-09-28T21:01:30.007Z,2.58
2018-09-28T21:03:57.432Z,1.77
2018-09-28T21:06:24.851Z,1.70
2018-09-28T21:08:53.221Z,2.00
2018-09-28T21:11:21.054Z,1.50
2018-09-28T21:13:48.472Z,2.20
2018-09-28T21:16:15.838Z,1.73
2018-09-28T21:18:43.176Z,2.87
2018-09-28T21:21:10.561Z,1.60
2018-09-28T21:23:37.903Z,2.17
2018-09-28T21:26:05.289Z,2.07
2018-09-28T21:28:32.618Z,2.33
2018-09-28T21:31:00.015Z,1.73
2018-09-28T21:33:27.377Z,2.47
2018-09-28T21:35:55.243Z,2.00
2018-09-28T21:38:23.630Z,1.70
2018-09-28T21:40:51.465Z,1.83
2018-09-28T21:43:18.990Z,1.57
2018-09-28T21:45:46.377Z,1.90
2018-09-28T21:48:13.730Z,1.97
2018-09-28T21:50:41.090Z,2.43
2018-09-28T21:53:08.419Z,2.50
2018-09-28T21:55:35.831Z,2.60
2018-09-28T21:58:03.156Z,2.50
2018-09-28T22:00:30.615Z,1.60
2018-09-28T22:02:58.301Z,2.03
2018-09-28T22:05:25.797Z,2.20
2018-09-28T22:07:54.242Z,1.60
2018-09-28T22:10:22.078Z,2.50
2018-09-28T22:12:49.500Z,2.40
2018-09-28T22:15:16.864Z,2.10
2018-09-28T22:17:45.152Z,2.10
2018-09-28T22:20:12.501Z,2.50
2018-09-28T22:22:39.876Z,1.90
2018-09-28T22:25:07.232Z,1.77
2018-09-28T22:27:34.610Z,2.17
2018-09-28T22:30:01.974Z,2.73
2018-09-28T22:32:29.360Z,2.07
2018-09-28T22:34:56.822Z,1.63
2018-09-28T22:37:25.105Z,2.53
2018-09-28T22:39:53.415Z,2.83
2018-09-28T22:42:20.982Z,2.63
2018-09-28T22:44:48.305Z,3.03
2018-09-28T22:47:15.691Z,2.60
2018-09-28T22:49:43.063Z,1.73
2018-09-28T22:52:10.427Z,2.13
2018-09-28T22:54:37.775Z,1.47
2018-09-28T22:57:05.122Z,2.03
2018-09-28T22:59:32.466Z,2.30
2018-09-28T23:01:59.836Z,2.30
2018-09-28T23:04:27.376Z,2.17
2018-09-28T23:06:55.575Z,2.57
2018-09-28T23:09:23.419Z,1.47
2018-09-28T23:11:50.918Z,1.90
2018-09-28T23:14:18.260Z,1.90
2018-09-28T23:16:45.636Z,1.60
2018-09-28T23:19:12.985Z,1.60
2018-09-28T23:21:40.436Z,2.23
2018-09-28T23:24:07.768Z,1.53
2018-09-28T23:26:35.157Z,2.13
2018-09-28T23:29:02.513Z,1.53
2018-09-28T23:31:29.868Z,1.70
2018-09-28T23:36:31.307Z,1.53
2018-09-28T23:38:58.669Z,1.43
2018-09-28T23:41:26.748Z,2.03
2018-09-28T23:43:55.088Z,2.07
2018-09-28T23:46:22.638Z,1.30
2018-09-28T23:48:50.061Z,2.00
2018-09-28T23:51:17.423Z,1.30
2018-09-28T23:53:44.801Z,1.97
2018-09-28T23:56:12.147Z,1.77
2018-09-28T23:58:39.521Z,1.90
